Time;durP1;ratioP1;P1;durP2;ratioP2;P2;SDS_P1;SDS_P2;PMS_P1;PMS_P2;Temp;Humidity;BMP_temperature;BMP_pressure;BME280_temperature;BME280_humidity;BME280_pressure;Samples;Min_cycle;Max_cycle;Signal;HPM_P1;HPM_P2
2022/10/08 00:00:52;;;;;;;1.00;0.52;;;;;;;10.05;68.36;100349.53;4971748;28;20071;-40
2022/10/08 00:03:21;;;;;;;2.03;0.65;;;;;;;10.05;68.76;100356.44;4971419;28;20059;-39
2022/10/08 00:06:13;;;;;;;2.17;0.55;;;;;;;9.96;68.80;100359.88;4977946;28;20065;-40
2022/10/08 00:08:42;;;;;;;3.80;0.65;;;;;;;9.97;69.18;100357.25;4977586;28;20046;-39
2022/10/08 00:11:13;;;;;;;2.90;0.73;;;;;;;9.94;68.54;100356.41;4970810;28;20133;-40
2022/10/08 00:13:41;;;;;;;1.25;0.50;;;;;;;9.91;68.59;100359.84;4976125;28;20074;-39
2022/10/08 00:18:47;;;;;;;2.10;1.30;;;;;;;9.86;68.87;100346.03;5036540;28;20435;-40
2022/10/08 00:21:17;;;;;;;;;;;;;;;9.69;69.02;100349.34;4982510;28;20061;-39
2022/10/08 00:23:46;;;;;;;2.35;1.42;;;;;;;9.75;69.30;100349.41;5008609;28;19926;-39
2022/10/08 00:26:16;;;;;;;2.72;1.75;;;;;;;9.74;69.01;100347.69;4981503;28;20062;-39
2022/10/08 00:28:46;;;;;;;3.83;1.15;;;;;;;9.73;69.03;100351.09;4977304;28;20157;-39
2022/10/08 00:31:18;;;;;;;1.40;1.30;;;;;;;9.72;69.07;100354.56;4977341;28;20046;-39
2022/10/08 00:33:53;;;;;;;5.15;1.17;;;;;;;9.68;68.78;100347.63;4982103;28;20050;-39
2022/10/08 00:36:24;;;;;;;2.53;1.67;;;;;;;9.67;69.06;100350.22;4978285;28;20141;-39
2022/10/08 00:38:57;;;;;;;4.63;1.52;;;;;;;9.65;69.00;100347.63;4990199;28;20045;-39
2022/10/08 00:41:25;;;;;;;2.20;1.40;;;;;;;9.64;69.11;100345.91;4979573;28;20130;-38
2022/10/08 00:43:55;;;;;;;2.00;0.95;;;;;;;9.62;69.04;100352.75;4980056;28;20043;-39
2022/10/08 00:46:27;;;;;;;3.13;0.77;;;;;;;9.61;68.80;100356.22;4987669;28;20437;-38
2022/10/08 00:49:10;;;;;;;2.58;0.80;;;;;;;9.59;68.59;100358.78;4992021;28;20090;-39
2022/10/08 00:51:43;;;;;;;4.57;1.27;;;;;;;9.55;69.05;100351.03;4980355;28;20089;-39
2022/10/08 00:54:12;;;;;;;2.92;1.67;;;;;;;9.56;68.94;100352.75;4992340;28;20873;-40
2022/10/08 00:56:39;;;;;;;6.72;1.58;;;;;;;9.52;68.99;100355.31;4981791;28;20061;-40
2022/10/08 00:59:08;;;;;;;1.85;1.33;;;;;;;9.52;69.17;100363.06;4982360;28;20105;-39
2022/10/08 01:01:34;;;;;;;2.00;1.05;;;;;;;9.51;68.96;100361.34;4977405;28;20055;-39
2022/10/08 01:04:04;;;;;;;1.95;1.67;;;;;;;9.49;68.99;100357.88;4978049;28;20694;-40
2022/10/08 01:06:51;;;;;;;;;;;;;;;9.32;69.47;100352.56;4974767;28;20048;-40
2022/10/08 01:09:41;;;;;;;2.55;1.27;;;;;;;9.35;68.67;100359.47;4982801;28;19926;-40
2022/10/08 01:12:21;;;;;;;1.55;1.33;;;;;;;9.38;68.91;100370.72;4961064;28;20086;-42
2022/10/08 01:15:28;;;;;;;5.57;1.25;;;;;;;9.31;69.12;100368.94;4976089;28;20058;-39
2022/10/08 01:26:50;;;;;;;4.38;1.80;;;;;;;9.25;69.06;100380.09;5023598;27;20410;-41
2022/10/08 01:32:04;;;;;;;1.73;0.32;;;;;;;9.29;69.33;100385.31;5031004;27;20417;-40
2022/10/08 01:34:43;;;;;;;1.60;0.63;;;;;;;9.25;68.91;100393.03;5019150;28;20072;-40
2022/10/08 01:37:17;;;;;;;8.82;0.82;;;;;;;9.23;68.82;100389.53;5018224;28;20128;-40
2022/10/08 01:39:48;;;;;;;1.83;0.38;;;;;;;9.21;68.79;100399.03;5010584;28;20136;-40
2022/10/08 01:42:18;;;;;;;2.25;0.38;;;;;;;9.19;69.23;100398.13;5018072;28;20057;-39
2022/10/08 01:44:52;;;;;;;1.70;0.40;;;;;;;9.17;69.30;100402.44;5015204;28;20136;-40
2022/10/08 01:47:23;;;;;;;2.35;0.40;;;;;;;9.14;69.47;100402.41;5010180;28;20124;-40
2022/10/08 01:49:56;;;;;;;3.97;0.38;;;;;;;9.12;69.53;100399.81;4993074;28;20193;-40
2022/10/08 01:52:27;;;;;;;3.63;0.50;;;;;;;9.10;69.32;100400.66;4995342;28;20097;-40
2022/10/08 01:55:00;;;;;;;1.70;0.52;;;;;;;9.08;69.33;100399.75;4991463;28;20577;-40
2022/10/08 01:57:29;;;;;;;0.95;0.50;;;;;;;9.07;69.28;100398.03;4994773;28;20077;-40
2022/10/08 02:00:02;;;;;;;3.60;0.52;;;;;;;9.05;69.50;100402.34;4996596;28;20133;-40
2022/10/08 02:02:28;;;;;;;1.52;0.47;;;;;;;9.03;69.49;100404.03;5001088;28;20565;-40
2022/10/08 02:04:55;;;;;;;4.60;0.65;;;;;;;8.99;69.03;100398.81;4994353;28;20050;-39
2022/10/08 02:07:27;;;;;;;3.45;0.80;;;;;;;8.98;69.43;100397.09;4997182;28;20046;-40
2022/10/08 02:12:39;;;;;;;2.33;0.77;;;;;;;8.91;70.09;100397.03;5046586;28;20757;-40
2022/10/08 02:15:10;;;;;;;5.15;0.57;;;;;;;8.90;69.67;100405.63;5003649;28;20046;-40
2022/10/08 02:20:41;;;;;;;5.18;0.60;;;;;;;8.84;69.33;100406.41;5021170;27;20402;-40
2022/10/08 02:25:53;;;;;;;2.13;0.35;;;;;;;8.79;69.96;100415.84;5011914;28;20410;-40
2022/10/08 02:28:48;;;;;;;4.45;0.80;;;;;;;8.76;69.99;100423.56;4995731;28;20081;-40
2022/10/08 02:31:25;;;;;;;2.83;0.75;;;;;;;8.73;69.42;100421.81;4994811;28;20150;-40
2022/10/08 02:36:39;;;;;;;2.88;1.63;;;;;;;8.72;70.30;100425.25;5041571;28;20399;-40
2022/10/08 02:39:09;;;;;;;2.28;0.88;;;;;;;8.70;69.31;100427.81;5007473;28;20133;-40
2022/10/08 02:41:42;;;;;;;2.95;1.40;;;;;;;8.68;69.75;100434.66;5000062;28;20046;-40
2022/10/08 02:44:13;;;;;;;4.78;0.75;;;;;;;8.66;69.52;100422.59;4995586;28;20386;-40
2022/10/08 02:46:43;;;;;;;3.28;1.25;;;;;;;8.63;70.28;100435.47;4997796;28;20124;-40
2022/10/08 02:49:16;;;;;;;2.63;0.95;;;;;;;8.58;69.18;100432.84;5003393;28;20399;-40
2022/10/08 02:51:48;;;;;;;2.35;1.60;;;;;;;8.57;69.58;100425.94;5001164;28;20058;-40
2022/10/08 02:54:19;;;;;;;1.85;1.13;;;;;;;8.54;70.01;100431.09;4992603;28;20054;-40
2022/10/08 02:59:24;;;;;;;0.73;0.40;;;;;;;8.47;70.18;100430.97;5019354;27;20421;-40
2022/10/08 03:01:57;;;;;;;4.55;1.05;;;;;;;8.45;69.71;100435.22;5003044;28;20684;-40
2022/10/08 03:04:35;;;;;;;1.83;0.57;;;;;;;8.42;69.67;100432.63;5005102;28;20418;-40
2022/10/08 03:07:02;;;;;;;3.05;0.43;;;;;;;8.40;70.04;100441.19;5007749;28;20136;-40
2022/10/08 03:09:37;;;;;;;1.70;0.38;;;;;;;8.37;69.29;100439.44;5013648;28;20498;-40
2022/10/08 03:12:05;;;;;;;3.10;0.50;;;;;;;8.35;70.16;100434.25;5001221;28;20140;-41
2022/10/08 03:14:38;;;;;;;2.28;0.32;;;;;;;8.33;69.39;100432.50;5005267;28;20052;-40
2022/10/08 03:17:06;;;;;;;3.95;1.05;;;;;;;8.31;70.36;100434.22;5004337;28;20045;-40
2022/10/08 03:19:33;;;;;;;2.05;0.50;;;;;;;8.29;70.56;100441.03;5010570;28;20068;-40
2022/10/08 03:22:01;;;;;;;5.78;2.05;;;;;;;8.26;69.78;100441.88;5006727;28;20531;-40
2022/10/08 03:24:28;;;;;;;4.78;0.40;;;;;;;8.23;70.63;100455.63;5008465;28;20057;-39
2022/10/08 03:26:54;;;;;;;2.35;1.65;;;;;;;8.22;70.31;100453.00;5008853;28;20140;-40
2022/10/08 03:29:21;;;;;;;3.72;1.77;;;;;;;8.20;70.05;100455.56;5008728;28;20046;-40
2022/10/08 03:31:48;;;;;;;2.38;0.90;;;;;;;8.19;70.79;100464.16;5001742;28;20413;-40
2022/10/08 03:34:15;;;;;;;2.35;0.63;;;;;;;8.18;69.98;100472.72;5004278;28;20149;-40
2022/10/08 03:36:41;;;;;;;2.85;0.50;;;;;;;8.17;70.46;100477.91;5001367;28;20042;-40
2022/10/08 03:39:10;;;;;;;2.33;1.65;;;;;;;8.16;70.01;100482.19;5008563;28;20041;-40
2022/10/08 03:41:36;;;;;;;3.15;1.98;;;;;;;8.14;70.17;100483.00;4998082;28;20570;-40
2022/10/08 03:44:06;;;;;;;2.95;0.50;;;;;;;8.13;70.15;100489.00;5003957;28;20541;-40
2022/10/08 03:46:33;;;;;;;5.30;0.55;;;;;;;8.10;69.75;100488.13;5004174;28;20049;-40
2022/10/08 03:49:00;;;;;;;2.85;1.60;;;;;;;8.08;70.60;100483.78;5004260;28;20453;-41
2022/10/08 03:51:26;;;;;;;5.25;2.05;;;;;;;8.06;70.59;100493.19;4996486;28;20141;-40
2022/10/08 03:53:53;;;;;;;4.90;0.52;;;;;;;8.04;70.08;100497.47;5008541;28;20046;-40
2022/10/08 03:56:23;;;;;;;4.22;0.30;;;;;;;8.02;70.25;100494.00;4998876;28;20596;-40
2022/10/08 03:58:52;;;;;;;;;;;;;;;7.88;70.03;100496.38;5006960;28;20046;-40
2022/10/08 04:01:19;;;;;;;5.15;0.40;;;;;;;7.93;69.82;100490.44;4990371;28;20047;-40
2022/10/08 04:03:45;;;;;;;2.20;1.15;;;;;;;7.93;69.53;100484.41;5009558;28;20255;-40
2022/10/08 04:06:12;;;;;;;1.33;0.65;;;;;;;7.92;70.19;100490.41;4993419;28;20129;-40
2022/10/08 04:08:39;;;;;;;1.60;0.32;;;;;;;7.90;70.49;100489.53;5010198;28;20065;-40
2022/10/08 04:11:11;;;;;;;1.98;0.50;;;;;;;7.89;70.74;100504.13;4980638;28;20074;-40
2022/10/08 04:13:38;;;;;;;2.50;1.45;;;;;;;7.87;70.14;100505.81;4984936;28;20046;-40
2022/10/08 04:16:08;;;;;;;3.67;0.43;;;;;;;7.85;70.56;100507.50;4991687;28;20127;-40
2022/10/08 04:18:35;;;;;;;6.43;1.42;;;;;;;7.83;70.34;100498.88;4985520;28;20038;-40
2022/10/08 04:21:05;;;;;;;4.43;0.50;;;;;;;7.80;71.10;100506.59;4992158;28;20049;-40
2022/10/08 04:23:35;;;;;;;2.47;2.13;;;;;;;7.78;70.08;100508.25;4993640;28;20117;-40
2022/10/08 04:26:02;;;;;;;2.72;1.75;;;;;;;7.76;70.10;100517.66;4985107;28;20050;-40
2022/10/08 04:28:29;;;;;;;4.55;0.43;;;;;;;7.72;69.90;100517.63;4972462;28;20076;-39
2022/10/08 04:31:04;;;;;;;3.53;0.60;;;;;;;7.71;71.13;100527.91;4989474;28;20072;-40
2022/10/08 04:33:33;;;;;;;5.55;1.85;;;;;;;7.70;70.37;100532.19;4982113;28;20051;-40
2022/10/08 04:36:00;;;;;;;3.35;0.73;;;;;;;7.68;70.75;100530.44;5000872;28;20050;-39
2022/10/08 04:38:27;;;;;;;2.95;1.65;;;;;;;7.67;70.40;100539.88;4984123;28;20539;-40
2022/10/08 04:41:05;;;;;;;5.22;2.03;;;;;;;7.66;71.30;100532.09;4987678;28;20074;-39
2022/10/08 04:43:34;;;;;;;6.25;1.23;;;;;;;7.68;71.63;100544.22;4987452;28;20834;-39
2022/10/08 04:46:01;;;;;;;2.92;0.82;;;;;;;7.66;70.93;100548.47;4993064;28;20503;-40
2022/10/08 04:48:28;;;;;;;4.40;1.85;;;;;;;7.67;72.04;100550.19;4984540;28;20050;-40
2022/10/08 04:50:57;;;;;;;1.83;0.57;;;;;;;7.69;70.93;100548.53;4989884;28;20052;-41
2022/10/08 04:53:24;;;;;;;3.53;1.90;;;;;;;7.67;71.50;100550.19;4992308;28;20042;-41
2022/10/08 04:55:52;;;;;;;1.92;0.35;;;;;;;7.71;70.98;100564.03;4999477;28;20066;-41
2022/10/08 04:58:23;;;;;;;1.55;0.40;;;;;;;7.71;71.25;100556.28;4986781;28;20505;-41
2022/10/08 05:00:49;;;;;;;2.20;0.57;;;;;;;7.70;72.20;100560.56;4993125;28;20505;-42
2022/10/08 05:03:16;;;;;;;4.47;0.63;;;;;;;7.72;71.87;100563.16;4990125;28;20050;-40
2022/10/08 05:05:44;;;;;;;2.45;0.30;;;;;;;7.74;72.26;100570.94;4990227;28;20849;-41
2022/10/08 05:08:11;;;;;;;2.13;0.32;;;;;;;7.71;72.38;100582.91;4983554;28;20051;-40
2022/10/08 05:10:38;;;;;;;4.47;0.60;;;;;;;7.73;71.92;100580.38;4987199;28;20420;-40
2022/10/08 05:13:05;;;;;;;2.58;1.50;;;;;;;7.74;71.67;100588.97;4990180;28;20042;-40
2022/10/08 05:15:33;;;;;;;3.80;1.55;;;;;;;7.74;72.52;100591.56;4994198;28;20043;-41
2022/10/08 05:18:00;;;;;;;7.97;0.50;;;;;;;7.74;72.13;100592.44;4987353;28;20052;-41
2022/10/08 05:20:27;;;;;;;3.45;1.75;;;;;;;7.75;72.36;100598.44;4977945;28;20074;-41
2022/10/08 05:22:54;;;;;;;3.33;0.60;;;;;;;7.74;71.63;100601.88;4985372;28;20069;-40
2022/10/08 05:25:21;;;;;;;3.67;1.52;;;;;;;7.72;72.57;100605.31;4985605;28;20050;-41
2022/10/08 05:27:47;;;;;;;5.60;0.30;;;;;;;7.72;71.19;100605.31;4989780;28;20054;-40
2022/10/08 05:30:14;;;;;;;4.10;0.60;;;;;;;7.70;72.08;100606.97;4988471;28;20081;-41
2022/10/08 05:32:47;;;;;;;4.03;1.55;;;;;;;7.69;71.34;100606.94;4985539;28;20050;-40
2022/10/08 05:35:15;;;;;;;5.75;2.03;;;;;;;7.67;71.59;100612.06;4986864;28;20056;-40
2022/10/08 05:37:41;;;;;;;6.28;0.57;;;;;;;7.65;71.66;100629.25;4987111;28;20049;-41
2022/10/08 05:40:08;;;;;;;5.28;1.60;;;;;;;7.65;71.97;100621.50;4985025;28;20077;-41
2022/10/08 05:42:35;;;;;;;4.75;1.02;;;;;;;7.64;72.21;100624.94;4988140;28;20051;-40
2022/10/08 05:45:03;;;;;;;3.58;0.90;;;;;;;7.63;71.82;100636.06;4993799;28;20042;-40
2022/10/08 05:47:29;;;;;;;5.38;2.35;;;;;;;7.61;71.57;100632.59;4989097;28;20104;-41
2022/10/08 05:49:56;;;;;;;4.47;0.47;;;;;;;7.61;71.61;100637.75;4988019;28;20141;-44
2022/10/08 05:52:22;;;;;;;3.00;1.80;;;;;;;7.61;71.56;100639.44;4982772;28;20085;-40
2022/10/08 05:54:49;;;;;;;4.00;1.65;;;;;;;7.60;71.40;100651.47;4991746;28;20050;-40
2022/10/08 05:57:16;;;;;;;3.10;0.52;;;;;;;7.58;71.85;100648.88;4983109;28;20081;-40
2022/10/08 05:59:43;;;;;;;8.02;0.82;;;;;;;7.58;72.75;100642.84;4986988;28;21327;-45
2022/10/08 06:02:10;;;;;;;4.32;0.90;;;;;;;7.58;72.83;100648.88;4987098;28;20054;-40
2022/10/08 06:04:36;;;;;;;4.47;2.08;;;;;;;7.59;72.69;100652.31;4980705;28;20078;-41
2022/10/08 06:07:03;;;;;;;7.18;1.73;;;;;;;7.59;71.60;100665.19;4979862;28;20065;-41
2022/10/08 06:09:30;;;;;;;4.72;0.52;;;;;;;7.60;71.94;100666.94;4977407;28;20186;-40
2022/10/08 06:11:57;;;;;;;3.70;1.33;;;;;;;7.61;72.61;100668.69;4991148;28;20078;-41
2022/10/08 06:14:24;;;;;;;4.28;0.95;;;;;;;7.62;73.08;100670.44;4988345;28;20046;-40
2022/10/08 06:16:50;;;;;;;4.65;0.47;;;;;;;7.63;71.80;100672.16;4978625;28;20133;-41
2022/10/08 06:19:17;;;;;;;3.15;1.95;;;;;;;7.64;73.23;100671.34;4987623;28;20125;-40
2022/10/08 06:21:44;;;;;;;5.32;0.50;;;;;;;7.62;72.33;100680.75;4981577;28;20586;-41
2022/10/08 06:24:11;;;;;;;2.65;0.90;;;;;;;7.64;72.04;100686.81;4985170;28;20054;-41
2022/10/08 06:26:39;;;;;;;5.20;0.65;;;;;;;7.66;72.98;100691.97;4990928;28;20949;-40
2022/10/08 06:29:09;;;;;;;3.80;0.65;;;;;;;7.66;73.34;100692.84;4981076;28;20197;-40
2022/10/08 06:31:36;;;;;;;3.53;0.40;;;;;;;7.66;73.23;100692.84;4982145;28;20042;-40
2022/10/08 06:34:04;;;;;;;6.78;0.77;;;;;;;7.69;72.14;100698.06;4980951;28;20508;-40
2022/10/08 06:36:33;;;;;;;5.50;2.33;;;;;;;7.70;71.97;100699.81;4986630;28;20088;-40
2022/10/08 06:39:04;;;;;;;7.03;0.47;;;;;;;7.71;73.28;100706.69;4995611;28;20076;-44
2022/10/08 06:41:33;;;;;;;2.60;0.40;;;;;;;7.72;71.94;100708.44;4988278;28;20137;-40
2022/10/08 06:44:03;;;;;;;1.65;0.40;;;;;;;7.75;72.47;100717.06;4987231;28;20073;-41
2022/10/08 06:46:31;;;;;;;5.32;0.63;;;;;;;7.76;72.62;100726.53;4983818;28;20529;-41
2022/10/08 06:49:00;;;;;;;3.40;0.30;;;;;;;7.78;72.92;100725.75;4992971;28;20045;-41
2022/10/08 06:51:27;;;;;;;3.67;0.47;;;;;;;7.80;72.46;100736.09;4995548;28;20069;-41
2022/10/08 06:53:55;;;;;;;3.22;0.50;;;;;;;7.82;72.63;100731.81;4991169;28;20099;-41
2022/10/08 06:56:27;;;;;;;11.20;0.52;;;;;;;7.84;71.87;100730.16;4989093;28;20046;-41
2022/10/08 06:58:54;;;;;;;6.15;0.68;;;;;;;7.86;72.15;100736.19;4993706;28;20092;-40
2022/10/08 07:01:23;;;;;;;3.58;1.67;;;;;;;7.89;72.80;100730.22;4982343;28;20136;-40
2022/10/08 07:03:59;;;;;;;2.90;0.40;;;;;;;7.91;72.07;100737.16;4977599;28;20067;-40
2022/10/08 07:06:27;;;;;;;1.63;0.40;;;;;;;7.93;72.08;100735.50;4981397;28;20059;-40
2022/10/08 07:08:57;;;;;;;3.33;0.95;;;;;;;7.97;73.13;100738.97;4990289;28;20070;-40
2022/10/08 07:11:24;;;;;;;8.63;0.70;;;;;;;8.01;72.96;100745.09;4980001;28;20513;-40
2022/10/08 07:13:52;;;;;;;9.02;0.82;;;;;;;8.05;71.74;100746.88;4981355;28;20062;-41
2022/10/08 07:16:22;;;;;;;11.10;3.92;;;;;;;8.10;72.10;100755.56;4982014;28;20145;-41
2022/10/08 07:18:51;;;;;;;10.40;4.43;;;;;;;8.17;72.09;100761.75;4981425;28;20125;-40
2022/10/08 07:21:19;;;;;;;12.05;2.72;;;;;;;8.21;71.65;100761.81;4985722;28;20116;-40
2022/10/08 07:23:47;;;;;;;8.85;3.63;;;;;;;8.29;72.74;100761.06;4975880;28;20153;-41
2022/10/08 07:26:16;;;;;;;5.20;1.50;;;;;;;8.34;72.77;100764.59;4977276;28;20063;-40
2022/10/08 07:28:48;;;;;;;7.20;3.85;;;;;;;8.43;72.26;100769.94;4977761;28;20048;-41
2022/10/08 07:31:19;;;;;;;6.65;1.92;;;;;;;8.53;72.28;100770.09;4977269;28;20059;-40
2022/10/08 07:33:47;;;;;;;8.95;4.28;;;;;;;8.64;72.80;100772.91;4980306;28;20522;-41
2022/10/08 07:36:17;;;;;;;12.35;3.45;;;;;;;8.75;72.38;100776.56;4976689;28;20066;-40
2022/10/08 07:38:44;;;;;;;8.57;2.45;;;;;;;8.88;72.55;100787.91;4971934;28;20043;-40
2022/10/08 07:41:12;;;;;;;5.50;1.50;;;;;;;9.00;72.84;100784.69;4968058;28;20125;-41
2022/10/08 07:43:40;;;;;;;3.50;0.90;;;;;;;9.11;72.09;100790.00;4980796;28;20105;-40
2022/10/08 07:46:09;;;;;;;4.72;0.88;;;;;;;9.23;72.36;100797.94;4976340;28;20051;-41
2022/10/08 07:48:37;;;;;;;2.90;0.70;;;;;;;9.36;72.51;100792.97;4982629;28;20034;-40
2022/10/08 07:51:14;;;;;;;6.38;1.55;;;;;;;9.46;72.32;100792.22;4976761;28;20142;-41
2022/10/08 07:53:42;;;;;;;8.75;1.52;;;;;;;9.62;72.65;100802.78;4978650;28;20105;-39
2022/10/08 07:56:11;;;;;;;3.25;1.00;;;;;;;9.77;72.10;100802.97;4976686;28;20082;-40
2022/10/08 07:58:38;;;;;;;10.57;1.25;;;;;;;9.93;71.58;100808.34;4982974;28;20561;-40
2022/10/08 08:01:07;;;;;;;7.38;1.80;;;;;;;10.15;72.30;100803.44;4980731;28;20137;-40
2022/10/08 08:03:34;;;;;;;6.65;1.35;;;;;;;10.42;71.76;100807.16;4982114;28;20077;-40
2022/10/08 08:06:05;;;;;;;8.90;1.10;;;;;;;10.77;71.86;100814.44;4982645;28;20081;-41
2022/10/08 08:08:34;;;;;;;6.88;0.88;;;;;;;11.23;71.05;100813.06;4981257;28;20193;-41
2022/10/08 08:11:03;;;;;;;7.45;1.35;;;;;;;12.02;70.45;100825.56;4984219;28;20050;-40
2022/10/08 08:13:32;;;;;;;4.57;1.00;;;;;;;13.14;68.90;100827.50;4983934;28;20146;-41
2022/10/08 08:16:07;;;;;;;7.95;1.10;;;;;;;14.33;66.23;100832.38;4974415;28;20146;-41
2022/10/08 08:18:36;;;;;;;4.38;0.88;;;;;;;15.42;64.44;100829.78;4976648;28;20054;-41
2022/10/08 08:21:06;;;;;;;8.00;2.30;;;;;;;16.40;62.97;100835.59;4983010;28;20051;-41
2022/10/08 08:23:37;;;;;;;6.80;1.60;;;;;;;17.31;61.19;100828.94;4985925;28;20116;-42
2022/10/08 08:26:08;;;;;;;4.38;2.03;;;;;;;18.16;59.64;100836.88;4980024;28;20100;-42
2022/10/08 08:28:35;;;;;;;6.82;1.73;;;;;;;18.93;57.92;100840.34;4980821;28;20137;-44
2022/10/08 08:33:53;;;;;;;9.40;2.20;;;;;;;20.26;54.92;100845.53;5088656;27;20405;-44
2022/10/08 08:36:24;;;;;;;8.90;3.25;;;;;;;20.72;54.17;100853.75;5025670;28;20065;-43
2022/10/08 08:38:51;;;;;;;10.50;1.50;;;;;;;20.96;52.88;100856.50;5003284;28;20124;-44
2022/10/08 08:43:59;;;;;;;5.00;2.38;;;;;;;21.75;52.49;100858.19;5010118;28;20926;-45
2022/10/08 08:46:32;;;;;;;7.35;2.15;;;;;;;21.93;50.92;100863.72;4978970;28;20050;-44
2022/10/08 08:49:06;;;;;;;7.00;1.98;;;;;;;21.89;51.04;100862.09;5000107;28;20050;-45
2022/10/08 08:51:33;;;;;;;4.55;2.05;;;;;;;22.05;50.63;100863.25;4982193;28;20066;-44
2022/10/08 08:54:00;;;;;;;6.82;2.92;;;;;;;22.47;50.41;100866.91;4981324;28;20054;-46
2022/10/08 08:56:27;;;;;;;5.07;1.40;;;;;;;23.03;50.09;100877.00;4984841;28;20618;-43
2022/10/08 08:59:02;;;;;;;8.93;4.57;;;;;;;23.56;48.92;100869.53;4981183;28;20170;-44
2022/10/08 09:01:35;;;;;;;5.80;3.08;;;;;;;24.17;47.96;100871.22;4982760;28;20341;-44
2022/10/08 09:04:12;;;;;;;7.00;2.78;;;;;;;24.75;47.43;100879.94;4998593;28;20046;-45
2022/10/08 09:06:40;;;;;;;6.10;2.78;;;;;;;25.28;46.36;100866.75;4981768;28;20050;-45
2022/10/08 09:11:58;;;;;;;6.70;1.88;;;;;;;26.27;44.30;100883.66;5021326;27;20939;-44
2022/10/08 09:14:46;;;;;;;5.13;1.08;;;;;;;26.63;43.33;100887.84;5013077;28;20066;-44
2022/10/08 09:17:17;;;;;;;5.80;1.23;;;;;;;26.88;42.74;100889.06;5013949;28;20064;-45
2022/10/08 09:19:48;;;;;;;10.20;1.65;;;;;;;27.24;42.39;100880.81;5022160;28;20497;-45
2022/10/08 09:25:02;;;;;;;4.95;0.90;;;;;;;27.75;40.93;100883.06;5089517;27;20930;-44
2022/10/08 09:30:28;;;;;;;17.10;4.65;;;;;;;27.91;38.40;100887.44;5129366;27;20148;-44
2022/10/08 09:32:59;;;;;;;10.70;2.38;;;;;;;27.92;39.33;100898.00;5080300;28;20048;-45
2022/10/08 09:35:25;;;;;;;6.82;2.28;;;;;;;27.99;38.84;100897.63;5080847;28;20130;-46
2022/10/08 09:37:55;;;;;;;5.97;1.48;;;;;;;28.01;37.89;100901.03;5052334;28;20052;-44
2022/10/08 09:40:25;;;;;;;4.57;1.10;;;;;;;28.18;38.58;100907.94;5037736;28;20052;-46
2022/10/08 09:43:13;;;;;;;7.75;1.33;;;;;;;28.38;37.04;100904.03;5050507;28;20055;-45
2022/10/08 09:45:46;;;;;;;4.88;1.50;;;;;;;28.46;38.16;100912.38;5048372;28;20049;-45
2022/10/08 09:48:25;;;;;;;3.47;0.82;;;;;;;28.63;36.76;100905.06;5041876;28;20053;-44
2022/10/08 09:56:11;;;;;;;7.22;1.75;;;;;;;28.66;36.26;100907.53;5084532;27;20398;-45
2022/10/08 09:58:51;;;;;;;5.82;2.13;;;;;;;28.34;35.05;100902.53;5080038;28;20063;-43
2022/10/08 10:01:19;;;;;;;8.07;1.98;;;;;;;27.65;35.66;100912.06;5077883;28;20048;-44
2022/10/08 10:03:52;;;;;;;8.00;2.05;;;;;;;27.12;36.21;100909.84;5078732;28;20483;-44
2022/10/08 10:06:33;;;;;;;4.53;2.00;;;;;;;26.78;36.11;100901.19;5081971;28;20044;-43
2022/10/08 10:11:46;;;;;;;4.00;0.63;;;;;;;26.24;35.91;100907.72;5008506;27;21200;-44
2022/10/08 10:14:27;;;;;;;3.60;0.98;;;;;;;25.79;36.91;100913.63;4988720;28;20532;-44
2022/10/08 10:16:59;;;;;;;6.22;1.10;;;;;;;25.73;37.38;100916.63;4987270;28;20141;-45
2022/10/08 10:19:37;;;;;;;4.97;1.10;;;;;;;25.75;37.08;100907.66;5021535;28;20046;-44
2022/10/08 10:22:11;;;;;;;3.63;1.00;;;;;;;25.23;36.57;100905.88;4991577;28;20048;-46
2022/10/08 10:27:35;;;;;;;3.88;0.50;;;;;;;24.37;36.76;100913.50;5099935;27;20399;-42
2022/10/08 10:32:50;;;;;;;5.32;2.70;;;;;;;24.18;38.29;100907.38;5014963;27;20418;-45
2022/10/08 10:35:23;;;;;;;4.22;1.85;;;;;;;24.21;38.58;100909.88;4988469;28;20104;-44
2022/10/08 10:37:58;;;;;;;6.30;2.33;;;;;;;23.98;38.12;100906.47;5013479;28;20088;-45
2022/10/08 10:40:30;;;;;;;7.90;2.63;;;;;;;23.57;38.79;100902.94;5015141;28;20060;-44
2022/10/08 10:43:37;;;;;;;5.95;2.25;;;;;;;23.25;38.88;100913.09;5019086;28;20045;-45
2022/10/08 10:48:51;;;;;;;7.25;0.52;;;;;;;22.55;39.53;100906.19;5118984;27;20407;-43
2022/10/08 10:57:03;;;;;;;4.15;0.50;;;;;;;21.37;41.48;100913.09;5038950;28;20408;-43
2022/10/08 10:59:44;;;;;;;4.03;0.43;;;;;;;21.01;41.38;100917.78;5023051;28;20068;-44
2022/10/08 11:02:37;;;;;;;3.75;0.77;;;;;;;20.52;41.68;100904.38;5020006;28;20045;-44
2022/10/08 11:05:18;;;;;;;6.07;1.98;;;;;;;20.25;42.29;100910.44;5021034;28;20504;-45
2022/10/08 11:11:26;;;;;;;3.13;0.75;;;;;;;19.62;43.46;100907.78;5087671;27;20908;-44
2022/10/08 11:17:20;;;;;;;4.35;0.60;;;;;;;19.27;44.47;100919.19;5103558;27;21236;-44
2022/10/08 11:25:36;;;;;;;6.78;0.85;;;;;;;18.63;44.52;100915.41;5047067;28;20715;-44
2022/10/08 11:31:45;;;;;;;4.88;1.77;;;;;;;18.39;45.79;100908.94;5072254;27;21188;-43
2022/10/08 11:48:00;;;;;;;7.15;1.77;;;;;;;17.90;47.29;100910.78;5003862;28;20922;-42
2022/10/08 11:50:30;;;;;;;8.23;1.88;;;;;;;17.88;46.33;100902.06;4997868;28;20137;-45
2022/10/08 11:55:37;;;;;;;5.65;0.82;;;;;;;17.79;46.92;100903.97;5026427;28;20409;-43
2022/10/08 11:58:16;;;;;;;2.10;0.60;;;;;;;17.81;47.54;100903.97;4996450;28;20077;-43
2022/10/08 12:00:45;;;;;;;5.82;1.70;;;;;;;17.81;47.17;100901.34;4997571;28;20409;-43
2022/10/08 12:03:39;;;;;;;3.20;1.60;;;;;;;17.77;47.86;100900.53;4992016;28;20553;-43
2022/10/08 12:06:25;;;;;;;3.08;0.65;;;;;;;17.68;47.45;100895.47;5019065;28;20060;-43
2022/10/08 12:09:03;;;;;;;3.70;0.30;;;;;;;17.55;46.56;100900.06;5000789;28;20537;-43
2022/10/08 12:20:01;;;;;;;4.43;0.75;;;;;;;17.37;46.27;100923.09;5060931;27;20412;-45
2022/10/08 12:31:00;;;;;;;3.15;1.23;;;;;;;17.15;47.01;100926.03;5079358;27;20399;-43
2022/10/08 12:33:29;;;;;;;4.68;1.30;;;;;;;17.14;48.10;100929.56;5040534;28;20049;-44
2022/10/08 12:36:10;;;;;;;4.10;1.52;;;;;;;17.10;47.37;100935.72;5022272;28;20049;-46
2022/10/08 12:38:43;;;;;;;5.05;0.80;;;;;;;17.08;47.67;100932.25;5040240;28;20056;-48
2022/10/08 12:43:59;;;;;;;5.43;1.67;;;;;;;17.02;47.94;100929.72;5034658;27;20941;-43
2022/10/08 12:54:46;;;;;;;4.07;2.00;;;;;;;17.21;48.27;100922.47;5069404;27;20907;-43
2022/10/08 12:57:20;;;;;;;4.22;1.88;;;;;;;17.18;47.84;100926.00;5010250;28;20132;-42
2022/10/08 12:59:49;;;;;;;4.15;1.77;;;;;;;17.15;47.95;100912.09;5023028;28;20049;-43
2022/10/08 13:05:30;;;;;;;3.63;0.30;;;;;;;17.13;47.60;100914.75;5026074;27;20422;-43
2022/10/08 13:07:58;;;;;;;3.92;1.00;;;;;;;17.29;47.78;100915.34;5022738;28;20061;-43
2022/10/08 13:10:28;;;;;;;1.92;0.43;;;;;;;17.42;47.91;100910.75;5016958;28;20387;-42
2022/10/08 13:13:04;;;;;;;6.32;1.83;;;;;;;17.59;47.14;100910.47;5020206;28;20045;-43
2022/10/08 13:15:32;;;;;;;7.10;1.20;;;;;;;17.65;47.67;100914.72;5014072;28;20535;-43
2022/10/08 13:18:20;;;;;;;6.25;0.75;;;;;;;17.57;47.33;100908.78;5013743;28;20569;-43
2022/10/08 13:21:00;;;;;;;9.48;2.22;;;;;;;17.56;47.57;100912.28;5000485;28;20085;-41
2022/10/08 13:26:43;;;;;;;6.72;1.63;;;;;;;17.88;46.07;100913.44;5069997;27;20423;-41
2022/10/08 13:32:21;;;;;;;2.78;1.05;;;;;;;17.57;45.20;100914.00;5026035;28;20409;-46
2022/10/08 13:34:52;;;;;;;1.92;0.75;;;;;;;17.53;46.31;100918.41;5007753;28;20153;-47
2022/10/08 13:42:41;;;;;;;3.03;0.90;;;;;;;17.46;45.74;100912.44;5049930;28;20405;-42
2022/10/08 13:45:16;;;;;;;3.63;0.88;;;;;;;17.43;44.82;100917.72;4997512;28;20058;-43
2022/10/08 13:47:43;;;;;;;3.33;0.63;;;;;;;17.43;45.41;100914.25;5000413;28;20541;-42
2022/10/08 13:50:10;;;;;;;8.02;1.10;;;;;;;17.46;44.95;100908.94;5000195;28;20070;-42
2022/10/08 13:52:42;;;;;;;5.35;1.60;;;;;;;17.45;44.81;100921.19;4999524;28;20616;-43
2022/10/08 13:55:31;;;;;;;2.65;0.52;;;;;;;17.35;45.34;100911.75;4998535;28;20138;-41
2022/10/08 13:58:00;;;;;;;3.88;0.70;;;;;;;17.37;45.24;100910.00;5022503;28;20140;-41
2022/10/08 14:00:29;;;;;;;4.72;0.35;;;;;;;17.39;45.87;100913.44;5000972;28;20085;-42
2022/10/08 14:02:56;;;;;;;4.10;1.55;;;;;;;17.37;45.47;100923.09;5032691;28;20124;-42
2022/10/08 14:05:23;;;;;;;3.80;0.52;;;;;;;17.32;44.75;100922.28;5000412;28;20042;-41
2022/10/08 14:07:55;;;;;;;6.70;1.58;;;;;;;17.29;44.92;100920.59;5001996;28;20083;-42